Time,TemperatureF,DewpointF,PressureIn,WindDirection,WindDirectionDegrees,WindSpeedMPH,WindSpeedGustMPH,Humidity,HourlyPrecipIn,Conditions,Clouds,dailyrainin,SoftwareType,DateUTC
2013-04-21 00:02:00,41.0,31.0,-100.00,SE,140,6.0,12.0,67,0.00,,,-99.99,,2013-04-21 05:02:00,
2013-04-21 00:12:00,40.0,30.0,-100.00,SE,135,8.0,12.0,65,0.00,,,-99.99,,2013-04-21 05:12:00,
2013-04-21 00:22:00,40.0,31.0,-100.00,SE,130,12.0,16.0,68,0.00,,,-99.99,,2013-04-21 05:22:00,
2013-04-21 00:32:00,40.0,31.0,-100.00,SE,140,6.0,16.0,68,0.00,,,-99.99,,2013-04-21 05:32:00,
2013-04-21 00:42:00,40.0,31.0,-100.00,SE,140,6.0,16.0,68,0.00,,,-99.99,,2013-04-21 05:42:00,
2013-04-21 00:52:00,40.0,31.0,-100.00,SSE,155,9.0,16.0,69,0.00,,,-99.99,,2013-04-21 05:52:00,
2013-04-21 01:01:00,40.0,31.0,-100.00,SSE,155,9.0,16.0,69,0.00,,,-99.99,,2013-04-21 06:01:00,
2013-04-21 01:12:00,40.0,32.0,-100.00,SSE,150,9.0,16.0,70,0.00,,,-99.99,,2013-04-21 06:12:00,
2013-04-21 01:21:00,40.0,31.0,-100.00,SE,145,8.0,18.0,70,0.00,,,-99.99,,2013-04-21 06:21:00,
2013-04-21 01:32:00,40.0,32.0,-100.00,SSE,160,9.0,19.0,71,0.00,,,-99.99,,2013-04-21 06:32:00,
2013-04-21 01:42:00,40.0,32.0,-100.00,SSE,160,9.0,19.0,71,0.00,,,-99.99,,2013-04-21 06:42:00,
2013-04-21 01:51:00,40.0,32.0,-100.00,SE,140,10.0,18.0,72,0.00,,,-99.99,,2013-04-21 06:51:00,
2013-04-21 02:01:00,40.0,32.0,-100.00,SE,140,10.0,18.0,72,0.00,,,-99.99,,2013-04-21 07:01:00,
2013-04-21 02:11:00,40.0,32.0,-100.00,SE,135,10.0,17.0,72,0.00,,,-99.99,,2013-04-21 07:11:00,
2013-04-21 02:21:00,40.0,32.0,-100.00,SSE,165,4.0,16.0,72,0.00,,,-99.99,,2013-04-21 07:21:00,
2013-04-21 02:31:00,40.0,33.0,-100.00,South,170,6.0,11.0,74,0.00,,,-99.99,,2013-04-21 07:31:00,
2013-04-21 02:41:00,40.0,33.0,-100.00,South,170,6.0,11.0,74,0.00,,,-99.99,,2013-04-21 07:41:00,
2013-04-21 02:52:00,41.0,32.0,-100.00,SSE,165,7.0,13.0,71,0.00,,,-99.99,,2013-04-21 07:52:00,
2013-04-21 03:01:00,41.0,32.0,-100.00,SSE,165,7.0,13.0,71,0.00,,,-99.99,,2013-04-21 08:01:00,
2013-04-21 03:12:00,41.0,32.0,-100.00,SE,140,9.0,19.0,70,0.00,,,-99.99,,2013-04-21 08:12:00,
2013-04-21 03:21:00,41.0,32.0,-100.00,SSE,160,6.0,15.0,69,0.00,,,-99.99,,2013-04-21 08:21:00,
2013-04-21 03:32:00,42.0,33.0,-100.00,South,180,4.0,10.0,70,0.00,,,-99.99,,2013-04-21 08:32:00,
2013-04-21 03:41:00,42.0,33.0,-100.00,South,180,4.0,10.0,70,0.00,,,-99.99,,2013-04-21 08:41:00,
2013-04-21 03:52:00,41.0,33.0,-100.00,SSE,150,6.0,15.0,71,0.00,,,-99.99,,2013-04-21 08:52:00,
2013-04-21 04:01:00,41.0,33.0,-100.00,SSE,150,6.0,15.0,71,0.00,,,-99.99,,2013-04-21 09:01:00,
2013-04-21 04:11:00,41.0,33.0,-100.00,SSE,165,2.0,10.0,72,0.00,,,-99.99,,2013-04-21 09:11:00,
2013-04-21 04:21:00,41.0,33.0,-100.00,SSW,205,1.0,17.0,72,0.00,,,-99.99,,2013-04-21 09:21:00,
2013-04-21 04:32:00,41.0,33.0,-100.00,SSE,155,4.0,12.0,74,0.00,,,-99.99,,2013-04-21 09:32:00,
2013-04-21 04:43:00,41.0,33.0,-100.00,SSE,155,4.0,12.0,74,0.00,,,-99.99,,2013-04-21 09:43:00,
2013-04-21 04:52:00,41.0,33.0,-100.00,ESE,120,9.0,12.0,74,0.00,,,-99.99,,2013-04-21 09:52:00,
2013-04-21 05:02:00,41.0,33.0,-100.00,ESE,120,9.0,12.0,74,0.00,,,-99.99,,2013-04-21 10:02:00,
2013-04-21 05:12:00,40.0,34.0,-100.00,ESE,120,5.0,13.0,75,0.00,,,-99.99,,2013-04-21 10:12:00,
2013-04-21 05:22:00,41.0,33.0,-100.00,SE,130,4.0,7.0,74,0.00,,,-99.99,,2013-04-21 10:22:00,
2013-04-21 05:32:00,40.0,34.0,-100.00,ESE,105,6.0,13.0,77,0.00,,,-99.99,,2013-04-21 10:32:00,
2013-04-21 05:42:00,40.0,34.0,-100.00,ESE,105,6.0,13.0,77,0.00,,,-99.99,,2013-04-21 10:42:00,
2013-04-21 05:52:00,40.0,34.0,-100.00,ESE,115,7.0,11.0,78,0.00,,,-99.99,,2013-04-21 10:52:00,
2013-04-21 06:02:00,40.0,34.0,-100.00,ESE,115,7.0,11.0,78,0.00,,,-99.99,,2013-04-21 11:02:00,
2013-04-21 06:12:00,40.0,34.0,-100.00,East,95,4.0,7.0,78,0.00,,,-99.99,,2013-04-21 11:12:00,
2013-04-21 06:22:00,40.0,35.0,-100.00,ESE,115,6.0,7.0,80,0.00,,,-99.99,,2013-04-21 11:22:00,
2013-04-21 06:34:00,40.0,35.0,-100.00,ESE,115,4.0,13.0,81,0.00,,,-99.99,,2013-04-21 11:34:00,
2013-04-21 06:42:00,40.0,35.0,-100.00,ESE,115,4.0,13.0,81,0.00,,,-99.99,,2013-04-21 11:42:00,
2013-04-21 06:52:00,40.0,35.0,-100.00,SE,130,7.0,11.0,81,0.06,,,-99.99,,2013-04-21 11:52:00,
2013-04-21 07:02:00,40.0,35.0,-100.00,SE,130,7.0,11.0,81,0.06,,,-99.99,,2013-04-21 12:02:00,
2013-04-21 07:12:00,40.0,35.0,-100.00,SE,125,9.0,14.0,82,0.00,,,-99.99,,2013-04-21 12:12:00,
2013-04-21 07:22:00,40.0,36.0,-100.00,SE,135,8.0,12.0,83,0.00,,,-99.99,,2013-04-21 12:22:00,
2013-04-21 07:32:00,41.0,36.0,-100.00,SE,130,9.0,12.0,83,0.00,,,-99.99,,2013-04-21 12:32:00,
2013-04-21 07:42:00,41.0,36.0,-100.00,SE,130,9.0,12.0,83,0.00,,,-99.99,,2013-04-21 12:42:00,
2013-04-21 07:52:00,41.0,36.0,-100.00,SE,135,7.0,12.0,83,0.00,,,-99.99,,2013-04-21 12:52:00,
2013-04-21 08:01:00,41.0,36.0,-100.00,SE,135,7.0,12.0,83,0.00,,,-99.99,,2013-04-21 13:01:00,
2013-04-21 08:11:00,41.0,37.0,-100.00,SE,130,7.0,12.0,83,0.00,,,-99.99,,2013-04-21 13:11:00,
2013-04-21 08:21:00,42.0,37.0,-100.00,SE,140,9.0,12.0,83,0.00,,,-99.99,,2013-04-21 13:21:00,
2013-04-21 08:32:00,44.0,37.0,-100.00,SSE,150,7.0,12.0,78,0.00,,,-99.99,,2013-04-21 13:32:00,
2013-04-21 08:42:00,44.0,37.0,-100.00,SSE,150,7.0,12.0,78,0.00,,,-99.99,,2013-04-21 13:42:00,
2013-04-21 08:52:00,45.0,37.0,-100.00,SSE,165,7.0,14.0,73,0.00,,,-99.99,,2013-04-21 13:52:00,
2013-04-21 09:02:00,45.0,37.0,-100.00,SSE,165,7.0,14.0,73,0.00,,,-99.99,,2013-04-21 14:02:00,
2013-04-21 09:11:00,45.0,36.0,-100.00,SSE,155,9.0,15.0,71,0.00,,,-99.99,,2013-04-21 14:11:00,
2013-04-21 09:21:00,45.0,37.0,-100.00,SSE,160,9.0,15.0,71,0.00,,,-99.99,,2013-04-21 14:21:00,
2013-04-21 09:32:00,47.0,38.0,-100.00,SSE,165,11.0,18.0,69,0.00,,,-99.99,,2013-04-21 14:32:00,
2013-04-21 09:42:00,47.0,38.0,-100.00,SSE,165,11.0,18.0,69,0.00,,,-99.99,,2013-04-21 14:42:00,
2013-04-21 09:52:00,49.0,39.0,-100.00,SSE,165,9.0,19.0,67,0.00,,,-99.99,,2013-04-21 14:52:00,
2013-04-21 10:02:00,49.0,39.0,-100.00,SSE,165,9.0,19.0,67,0.00,,,-99.99,,2013-04-21 15:02:00,
2013-04-21 10:11:00,49.0,39.0,-100.00,SSE,165,10.0,17.0,66,0.00,,,-99.99,,2013-04-21 15:11:00,
2013-04-21 10:22:00,50.0,39.0,-100.00,South,185,11.0,18.0,65,0.00,,,-99.99,,2013-04-21 15:22:00,
2013-04-21 10:33:00,49.0,39.0,-100.00,South,170,11.0,17.0,66,0.00,,,-99.99,,2013-04-21 15:33:00,
2013-04-21 10:42:00,49.0,39.0,-100.00,South,170,11.0,17.0,66,0.00,,,-99.99,,2013-04-21 15:42:00,
2013-04-21 10:53:00,53.0,40.0,-100.00,South,180,11.0,19.0,62,0.00,,,-99.99,,2013-04-21 15:53:00,
2013-04-21 11:03:00,53.0,40.0,-100.00,South,180,11.0,19.0,62,0.00,,,-99.99,,2013-04-21 16:03:00,
2013-04-21 11:12:00,52.0,40.0,-100.00,South,170,11.0,21.0,64,0.00,,,-99.99,,2013-04-21 16:12:00,
2013-04-21 11:22:00,53.0,41.0,-100.00,South,170,11.0,18.0,63,0.00,,,-99.99,,2013-04-21 16:22:00,
2013-04-21 11:33:00,58.0,42.0,-100.00,SSW,205,9.0,20.0,56,0.00,,,-99.99,,2013-04-21 16:33:00,
2013-04-21 11:42:00,58.0,42.0,-100.00,SSW,205,9.0,20.0,56,0.00,,,-99.99,,2013-04-21 16:42:00,
2013-04-21 11:52:00,58.0,43.0,-100.00,South,180,10.0,18.0,56,0.00,,,-99.99,,2013-04-21 16:52:00,
2013-04-21 12:02:00,58.0,43.0,-100.00,South,180,10.0,18.0,56,0.00,,,-99.99,,2013-04-21 17:02:00,
2013-04-21 12:12:00,59.0,44.0,-100.00,SSW,205,13.0,22.0,56,0.00,,,-99.99,,2013-04-21 17:12:00,
2013-04-21 12:22:00,59.0,44.0,-100.00,South,185,14.0,26.0,55,0.00,,,-99.99,,2013-04-21 17:22:00,
2013-04-21 12:32:00,60.0,44.0,-100.00,South,185,12.0,27.0,55,0.00,,,-99.99,,2013-04-21 17:32:00,
2013-04-21 12:42:00,60.0,44.0,-100.00,South,185,12.0,27.0,55,0.00,,,-99.99,,2013-04-21 17:42:00,
2013-04-21 12:52:00,62.0,45.0,-100.00,South,185,10.0,21.0,54,0.00,,,-99.99,,2013-04-21 17:52:00,
2013-04-21 13:02:00,62.0,45.0,-100.00,South,185,10.0,21.0,54,0.00,,,-99.99,,2013-04-21 18:02:00,
2013-04-21 13:11:00,62.0,46.0,-100.00,South,170,12.0,21.0,54,0.00,,,-99.99,,2013-04-21 18:11:00,
2013-04-21 13:22:00,64.0,47.0,-100.00,SSW,200,17.0,26.0,53,0.00,,,-99.99,,2013-04-21 18:22:00,
2013-04-21 13:32:00,65.0,46.0,-100.00,SSW,205,17.0,27.0,50,0.00,,,-99.99,,2013-04-21 18:32:00,
2013-04-21 13:42:00,65.0,46.0,-100.00,SSW,205,17.0,27.0,50,0.00,,,-99.99,,2013-04-21 18:42:00,
2013-04-21 13:52:00,65.0,46.0,-100.00,SSW,210,16.0,27.0,50,0.00,,,-99.99,,2013-04-21 18:52:00,
2013-04-21 14:02:00,65.0,46.0,-100.00,SSW,210,16.0,27.0,50,0.00,,,-99.99,,2013-04-21 19:02:00,
2013-04-21 14:11:00,66.0,48.0,-100.00,SSW,205,14.0,26.0,50,0.00,,,-99.99,,2013-04-21 19:11:00,
2013-04-21 14:21:00,67.0,47.0,-100.00,SSW,200,19.0,29.0,48,0.00,,,-99.99,,2013-04-21 19:21:00,
2013-04-21 14:32:00,67.0,46.0,-100.00,SSW,205,20.0,30.0,47,0.00,,,-99.99,,2013-04-21 19:32:00,
2013-04-21 14:42:00,67.0,46.0,-100.00,SSW,205,20.0,30.0,47,0.00,,,-99.99,,2013-04-21 19:42:00,
2013-04-21 14:52:00,69.0,47.0,-100.00,SW,215,17.0,34.0,45,0.00,,,-99.99,,2013-04-21 19:52:00,
2013-04-21 15:02:00,69.0,47.0,-100.00,SW,215,17.0,34.0,45,0.00,,,-99.99,,2013-04-21 20:02:00,
2013-04-21 15:11:00,67.0,45.0,-100.00,SW,230,21.0,29.0,45,0.00,,,-99.99,,2013-04-21 20:11:00,
2013-04-21 15:22:00,67.0,46.0,-100.00,SSW,205,19.0,27.0,45,0.00,,,-99.99,,2013-04-21 20:22:00,
2013-04-21 15:32:00,65.0,44.0,-100.00,SSW,200,19.0,29.0,45,0.00,,,-99.99,,2013-04-21 20:32:00,
2013-04-21 15:41:00,65.0,44.0,-100.00,SSW,200,19.0,29.0,45,0.00,,,-99.99,,2013-04-21 20:41:00,
2013-04-21 15:52:00,65.0,43.0,-100.00,SW,215,24.0,31.0,44,0.00,,,-99.99,,2013-04-21 20:52:00,
2013-04-21 16:02:00,65.0,43.0,-100.00,SW,215,24.0,31.0,44,0.00,,,-99.99,,2013-04-21 21:02:00,
2013-04-21 16:12:00,65.0,43.0,-100.00,SSW,210,23.0,30.0,44,0.00,,,-99.99,,2013-04-21 21:12:00,
2013-04-21 16:21:00,65.0,44.0,-100.00,SSW,210,21.0,27.0,46,0.00,,,-99.99,,2013-04-21 21:21:00,
2013-04-21 16:33:00,67.0,45.0,-100.00,SSW,205,17.0,24.0,43,0.00,,,-99.99,,2013-04-21 21:33:00,
2013-04-21 16:43:00,67.0,45.0,-100.00,SSW,205,17.0,24.0,43,0.00,,,-99.99,,2013-04-21 21:43:00,
2013-04-21 16:53:00,64.0,44.0,-100.00,SSW,210,17.0,24.0,47,0.00,,,-99.99,,2013-04-21 21:53:00,
2013-04-21 17:02:00,64.0,44.0,-100.00,SSW,210,17.0,24.0,47,0.00,,,-99.99,,2013-04-21 22:02:00,
2013-04-21 17:12:00,64.0,44.0,-100.00,SSW,210,12.0,20.0,48,0.00,,,-99.99,,2013-04-21 22:12:00,
2013-04-21 17:22:00,64.0,44.0,-100.00,SSW,205,15.0,21.0,48,0.00,,,-99.99,,2013-04-21 22:22:00,
2013-04-21 17:33:00,66.0,44.0,-100.00,SW,215,16.0,20.0,44,0.00,,,-99.99,,2013-04-21 22:33:00,
2013-04-21 17:43:00,66.0,44.0,-100.00,SW,215,16.0,20.0,44,0.00,,,-99.99,,2013-04-21 22:43:00,
2013-04-21 17:52:00,66.0,42.0,-100.00,SSW,210,26.0,31.0,41,0.00,,,-99.99,,2013-04-21 22:52:00,
2013-04-21 18:02:00,66.0,42.0,-100.00,SSW,210,26.0,31.0,41,0.00,,,-99.99,,2013-04-21 23:02:00,
2013-04-21 18:12:00,65.0,42.0,-100.00,SSW,210,21.0,29.0,42,0.00,,,-99.99,,2013-04-21 23:12:00,
2013-04-21 18:22:00,65.0,42.0,-100.00,SSW,205,23.0,29.0,43,0.00,,,-99.99,,2013-04-21 23:22:00,
2013-04-21 18:32:00,64.0,43.0,-100.00,SSW,205,17.0,27.0,46,0.00,,,-99.99,,2013-04-21 23:32:00,
2013-04-21 18:42:00,64.0,43.0,-100.00,SSW,205,17.0,27.0,46,0.00,,,-99.99,,2013-04-21 23:42:00,
2013-04-21 18:52:00,64.0,43.0,-100.00,SSW,205,14.0,27.0,46,0.00,,,-99.99,,2013-04-21 23:52:00,
2013-04-21 19:01:00,64.0,43.0,-100.00,SSW,205,14.0,27.0,46,0.00,,,-99.99,,2013-04-22 00:01:00,
2013-04-21 19:11:00,63.0,43.0,-100.00,SSW,205,16.0,24.0,46,0.00,,,-99.99,,2013-04-22 00:11:00,
2013-04-21 19:21:00,64.0,43.0,-100.00,SSW,205,16.0,22.0,46,0.00,,,-99.99,,2013-04-22 00:21:00,
2013-04-21 19:32:00,63.0,42.0,-100.00,SSW,205,13.0,20.0,46,0.00,,,-99.99,,2013-04-22 00:32:00,
2013-04-21 19:42:00,63.0,42.0,-100.00,SSW,205,13.0,20.0,46,0.00,,,-99.99,,2013-04-22 00:42:00,
2013-04-21 19:51:00,62.0,43.0,-100.00,SSW,200,12.0,19.0,49,0.00,,,-99.99,,2013-04-22 00:51:00,
2013-04-21 20:01:00,62.0,43.0,-100.00,SSW,200,12.0,19.0,49,0.00,,,-99.99,,2013-04-22 01:01:00,
2013-04-21 20:11:00,61.0,44.0,-100.00,SSW,205,7.0,12.0,53,0.00,,,-99.99,,2013-04-22 01:11:00,
2013-04-21 20:12:00,61.0,43.0,-100.00,SSW,200,7.0,12.0,51,0.00,,,-99.99,,2013-04-22 01:12:00,
2013-04-21 20:21:00,61.0,44.0,-100.00,SSW,205,10.0,14.0,53,0.00,,,-99.99,,2013-04-22 01:21:00,
2013-04-21 20:32:00,61.0,44.0,-100.00,SSW,205,7.0,12.0,53,0.00,,,-99.99,,2013-04-22 01:32:00,
2013-04-21 20:41:00,61.0,44.0,-100.00,SSW,205,7.0,12.0,53,0.00,,,-99.99,,2013-04-22 01:41:00,
2013-04-21 20:52:00,61.0,44.0,-100.00,SSW,205,7.0,12.0,53,0.00,,,-99.99,,2013-04-22 01:52:00,
2013-04-21 21:02:00,61.0,44.0,-100.00,SSW,205,7.0,12.0,53,0.00,,,-99.99,,2013-04-22 02:02:00,